sensor_id;sensor_type;location;lat;lon;timestamp;P1;durP1;ratioP1;P2;durP2;ratioP2
52067;SDS011;60237;52.338;21.228;2022-09-09T00:04:38;18.55;;;1.70;;
52067;SDS011;60237;52.338;21.228;2022-09-09T00:09:39;18.13;;;1.85;;
52067;SDS011;60237;52.338;21.228;2022-09-09T00:14:34;11.18;;;3.33;;
52067;SDS011;60237;52.338;21.228;2022-09-09T00:17:08;22.40;;;2.28;;
52067;SDS011;60237;52.338;21.228;2022-09-09T00:19:43;5.75;;;0.75;;
52067;SDS011;60237;52.338;21.228;2022-09-09T00:24:43;16.13;;;1.60;;
52067;SDS011;60237;52.338;21.228;2022-09-09T00:29:57;89.97;;;31.35;;
52067;SDS011;60237;52.338;21.228;2022-09-09T00:32:28;61.95;;;25.60;;
52067;SDS011;60237;52.338;21.228;2022-09-09T00:35:03;66.25;;;22.88;;
52067;SDS011;60237;52.338;21.228;2022-09-09T00:37:31;53.90;;;22.38;;
52067;SDS011;60237;52.338;21.228;2022-09-09T00:39:59;73.30;;;22.40;;
52067;SDS011;60237;52.338;21.228;2022-09-09T00:42:31;13.90;;;2.00;;
52067;SDS011;60237;52.338;21.228;2022-09-09T00:57:59;17.38;;;1.85;;
52067;SDS011;60237;52.338;21.228;2022-09-09T01:00:30;9.02;;;1.00;;
52067;SDS011;60237;52.338;21.228;2022-09-09T01:03:05;16.98;;;2.20;;
52067;SDS011;60237;52.338;21.228;2022-09-09T01:08:15;7.82;;;1.52;;
52067;SDS011;60237;52.338;21.228;2022-09-09T01:10:52;28.17;;;2.72;;
52067;SDS011;60237;52.338;21.228;2022-09-09T01:15:52;30.02;;;2.88;;
52067;SDS011;60237;52.338;21.228;2022-09-09T01:18:27;9.00;;;0.90;;
52067;SDS011;60237;52.338;21.228;2022-09-09T01:28:47;26.95;;;2.60;;
52067;SDS011;60237;52.338;21.228;2022-09-09T01:31:20;6.80;;;1.23;;
52067;SDS011;60237;52.338;21.228;2022-09-09T01:33:48;33.55;;;3.90;;
52067;SDS011;60237;52.338;21.228;2022-09-09T01:38:48;25.90;;;3.22;;
52067;SDS011;60237;52.338;21.228;2022-09-09T01:41:16;19.95;;;2.15;;
52067;SDS011;60237;52.338;21.228;2022-09-09T01:43:48;28.40;;;2.85;;
52067;SDS011;60237;52.338;21.228;2022-09-09T01:46:15;14.50;;;1.63;;
52067;SDS011;60237;52.338;21.228;2022-09-09T01:48:42;37.35;;;6.03;;
52067;SDS011;60237;52.338;21.228;2022-09-09T01:51:10;15.65;;;4.07;;
52067;SDS011;60237;52.338;21.228;2022-09-09T01:53:37;11.40;;;1.40;;
52067;SDS011;60237;52.338;21.228;2022-09-09T02:01:45;2.28;;;0.57;;
52067;SDS011;60237;52.338;21.228;2022-09-09T02:04:37;12.30;;;1.75;;
52067;SDS011;60237;52.338;21.228;2022-09-09T02:07:03;5.93;;;0.75;;
52067;SDS011;60237;52.338;21.228;2022-09-09T02:09:32;20.60;;;4.28;;
52067;SDS011;60237;52.338;21.228;2022-09-09T02:12:08;22.27;;;2.28;;
52067;SDS011;60237;52.338;21.228;2022-09-09T02:14:45;14.50;;;1.40;;
52067;SDS011;60237;52.338;21.228;2022-09-09T02:17:13;10.43;;;1.45;;
52067;SDS011;60237;52.338;21.228;2022-09-09T02:20:05;29.17;;;2.85;;
52067;SDS011;60237;52.338;21.228;2022-09-09T02:22:50;15.80;;;1.65;;
52067;SDS011;60237;52.338;21.228;2022-09-09T02:25:19;14.95;;;1.83;;
52067;SDS011;60237;52.338;21.228;2022-09-09T02:27:49;16.70;;;1.65;;
52067;SDS011;60237;52.338;21.228;2022-09-09T02:30:17;12.63;;;1.58;;
52067;SDS011;60237;52.338;21.228;2022-09-09T02:32:50;43.25;;;4.10;;
52067;SDS011;60237;52.338;21.228;2022-09-09T02:35:19;8.50;;;1.25;;
52067;SDS011;60237;52.338;21.228;2022-09-09T02:37:47;23.05;;;2.25;;
52067;SDS011;60237;52.338;21.228;2022-09-09T02:40:16;13.93;;;1.42;;
52067;SDS011;60237;52.338;21.228;2022-09-09T02:42:48;9.82;;;1.05;;
52067;SDS011;60237;52.338;21.228;2022-09-09T02:45:18;22.17;;;2.15;;
52067;SDS011;60237;52.338;21.228;2022-09-09T02:47:58;21.25;;;2.17;;
52067;SDS011;60237;52.338;21.228;2022-09-09T02:50:34;13.20;;;1.83;;
52067;SDS011;60237;52.338;21.228;2022-09-09T02:56:08;10.13;;;1.20;;
52067;SDS011;60237;52.338;21.228;2022-09-09T02:58:39;7.32;;;0.77;;
52067;SDS011;60237;52.338;21.228;2022-09-09T03:01:06;15.85;;;1.75;;
52067;SDS011;60237;52.338;21.228;2022-09-09T03:03:32;6.85;;;0.75;;
52067;SDS011;60237;52.338;21.228;2022-09-09T03:06:02;22.75;;;2.42;;
52067;SDS011;60237;52.338;21.228;2022-09-09T03:08:29;19.35;;;2.10;;
52067;SDS011;60237;52.338;21.228;2022-09-09T03:10:58;11.15;;;2.40;;
52067;SDS011;60237;52.338;21.228;2022-09-09T03:13:27;8.23;;;1.92;;
52067;SDS011;60237;52.338;21.228;2022-09-09T03:15:53;29.08;;;4.72;;
52067;SDS011;60237;52.338;21.228;2022-09-09T03:18:20;17.05;;;2.17;;
52067;SDS011;60237;52.338;21.228;2022-09-09T03:20:49;17.30;;;1.75;;
52067;SDS011;60237;52.338;21.228;2022-09-09T03:23:18;18.85;;;2.08;;
52067;SDS011;60237;52.338;21.228;2022-09-09T03:25:48;24.50;;;2.47;;
52067;SDS011;60237;52.338;21.228;2022-09-09T03:28:18;15.32;;;1.95;;
52067;SDS011;60237;52.338;21.228;2022-09-09T03:30:45;14.20;;;1.73;;
52067;SDS011;60237;52.338;21.228;2022-09-09T03:33:12;10.32;;;1.20;;
52067;SDS011;60237;52.338;21.228;2022-09-09T03:35:38;20.38;;;2.50;;
52067;SDS011;60237;52.338;21.228;2022-09-09T03:38:06;14.27;;;1.55;;
52067;SDS011;60237;52.338;21.228;2022-09-09T03:40:34;5.25;;;0.90;;
52067;SDS011;60237;52.338;21.228;2022-09-09T03:43:01;17.98;;;2.67;;
52067;SDS011;60237;52.338;21.228;2022-09-09T03:45:28;16.38;;;1.98;;
52067;SDS011;60237;52.338;21.228;2022-09-09T03:47:54;19.92;;;2.42;;
52067;SDS011;60237;52.338;21.228;2022-09-09T03:50:21;18.63;;;2.03;;
52067;SDS011;60237;52.338;21.228;2022-09-09T03:52:47;33.45;;;3.55;;
52067;SDS011;60237;52.338;21.228;2022-09-09T03:55:19;17.27;;;2.97;;
52067;SDS011;60237;52.338;21.228;2022-09-09T03:57:46;31.10;;;3.50;;
52067;SDS011;60237;52.338;21.228;2022-09-09T04:00:12;22.85;;;2.92;;
52067;SDS011;60237;52.338;21.228;2022-09-09T04:02:42;24.52;;;2.72;;
52067;SDS011;60237;52.338;21.228;2022-09-09T04:05:13;13.43;;;1.42;;
52067;SDS011;60237;52.338;21.228;2022-09-09T04:07:42;13.38;;;1.50;;
52067;SDS011;60237;52.338;21.228;2022-09-09T04:10:10;20.70;;;2.17;;
52067;SDS011;60237;52.338;21.228;2022-09-09T04:12:38;20.83;;;2.55;;
52067;SDS011;60237;52.338;21.228;2022-09-09T04:15:05;11.05;;;1.23;;
52067;SDS011;60237;52.338;21.228;2022-09-09T04:17:33;6.85;;;0.82;;
52067;SDS011;60237;52.338;21.228;2022-09-09T04:19:59;8.13;;;0.93;;
52067;SDS011;60237;52.338;21.228;2022-09-09T04:22:27;9.10;;;1.48;;
52067;SDS011;60237;52.338;21.228;2022-09-09T04:24:53;8.65;;;1.00;;
52067;SDS011;60237;52.338;21.228;2022-09-09T04:27:20;15.50;;;1.83;;
52067;SDS011;60237;52.338;21.228;2022-09-09T04:29:47;13.55;;;1.95;;
52067;SDS011;60237;52.338;21.228;2022-09-09T04:32:13;9.63;;;1.33;;
52067;SDS011;60237;52.338;21.228;2022-09-09T04:34:40;22.20;;;2.78;;
52067;SDS011;60237;52.338;21.228;2022-09-09T04:37:08;6.47;;;1.02;;
52067;SDS011;60237;52.338;21.228;2022-09-09T04:39:37;8.15;;;1.35;;
52067;SDS011;60237;52.338;21.228;2022-09-09T04:42:04;23.15;;;2.67;;
52067;SDS011;60237;52.338;21.228;2022-09-09T04:44:31;10.02;;;1.42;;
52067;SDS011;60237;52.338;21.228;2022-09-09T04:46:58;5.65;;;0.68;;
52067;SDS011;60237;52.338;21.228;2022-09-09T04:49:25;21.73;;;2.67;;
52067;SDS011;60237;52.338;21.228;2022-09-09T04:51:53;11.18;;;1.55;;
52067;SDS011;60237;52.338;21.228;2022-09-09T04:54:21;16.30;;;1.77;;
52067;SDS011;60237;52.338;21.228;2022-09-09T04:56:52;34.95;;;3.80;;
52067;SDS011;60237;52.338;21.228;2022-09-09T04:59:18;5.65;;;1.02;;
52067;SDS011;60237;52.338;21.228;2022-09-09T05:01:49;16.60;;;1.88;;
52067;SDS011;60237;52.338;21.228;2022-09-09T05:04:16;16.75;;;1.83;;
52067;SDS011;60237;52.338;21.228;2022-09-09T05:06:43;17.83;;;2.78;;
52067;SDS011;60237;52.338;21.228;2022-09-09T05:09:11;15.73;;;1.90;;
52067;SDS011;60237;52.338;21.228;2022-09-09T05:11:37;34.38;;;3.53;;
52067;SDS011;60237;52.338;21.228;2022-09-09T05:14:20;12.25;;;1.52;;
52067;SDS011;60237;52.338;21.228;2022-09-09T05:16:46;17.85;;;1.88;;
52067;SDS011;60237;52.338;21.228;2022-09-09T05:19:13;5.63;;;0.65;;
52067;SDS011;60237;52.338;21.228;2022-09-09T05:21:43;25.38;;;2.63;;
52067;SDS011;60237;52.338;21.228;2022-09-09T05:24:11;22.40;;;2.33;;
52067;SDS011;60237;52.338;21.228;2022-09-09T05:26:38;6.55;;;0.68;;
52067;SDS011;60237;52.338;21.228;2022-09-09T05:29:06;9.38;;;1.05;;
52067;SDS011;60237;52.338;21.228;2022-09-09T05:31:32;20.42;;;2.28;;
52067;SDS011;60237;52.338;21.228;2022-09-09T05:34:02;9.25;;;1.42;;
52067;SDS011;60237;52.338;21.228;2022-09-09T05:36:29;11.13;;;1.85;;
52067;SDS011;60237;52.338;21.228;2022-09-09T05:38:56;26.65;;;2.78;;
52067;SDS011;60237;52.338;21.228;2022-09-09T05:41:25;7.00;;;1.05;;
52067;SDS011;60237;52.338;21.228;2022-09-09T05:43:54;15.85;;;2.55;;
52067;SDS011;60237;52.338;21.228;2022-09-09T05:46:21;14.65;;;1.77;;
52067;SDS011;60237;52.338;21.228;2022-09-09T05:48:51;9.93;;;1.42;;
52067;SDS011;60237;52.338;21.228;2022-09-09T05:51:23;13.38;;;1.52;;
52067;SDS011;60237;52.338;21.228;2022-09-09T05:53:51;28.50;;;3.50;;
52067;SDS011;60237;52.338;21.228;2022-09-09T05:56:40;16.00;;;2.53;;
52067;SDS011;60237;52.338;21.228;2022-09-09T05:59:07;14.10;;;1.50;;
52067;SDS011;60237;52.338;21.228;2022-09-09T06:01:35;8.48;;;0.95;;
52067;SDS011;60237;52.338;21.228;2022-09-09T06:04:02;14.85;;;1.95;;
52067;SDS011;60237;52.338;21.228;2022-09-09T06:06:31;4.82;;;0.57;;
52067;SDS011;60237;52.338;21.228;2022-09-09T06:08:59;17.30;;;2.13;;
52067;SDS011;60237;52.338;21.228;2022-09-09T06:11:31;17.60;;;1.90;;
52067;SDS011;60237;52.338;21.228;2022-09-09T06:13:59;5.80;;;1.13;;
52067;SDS011;60237;52.338;21.228;2022-09-09T06:16:27;14.27;;;3.45;;
52067;SDS011;60237;52.338;21.228;2022-09-09T06:18:54;17.70;;;1.90;;
52067;SDS011;60237;52.338;21.228;2022-09-09T06:21:24;10.90;;;1.17;;
52067;SDS011;60237;52.338;21.228;2022-09-09T06:23:51;20.38;;;2.20;;
52067;SDS011;60237;52.338;21.228;2022-09-09T06:28:53;9.52;;;2.15;;
52067;SDS011;60237;52.338;21.228;2022-09-09T06:31:21;15.85;;;1.70;;
52067;SDS011;60237;52.338;21.228;2022-09-09T06:33:56;9.60;;;1.65;;
52067;SDS011;60237;52.338;21.228;2022-09-09T06:36:24;7.35;;;0.93;;
52067;SDS011;60237;52.338;21.228;2022-09-09T06:38:50;36.72;;;3.85;;
52067;SDS011;60237;52.338;21.228;2022-09-09T06:41:21;8.77;;;1.02;;
52067;SDS011;60237;52.338;21.228;2022-09-09T06:43:48;18.13;;;2.15;;
52067;SDS011;60237;52.338;21.228;2022-09-09T06:46:19;24.85;;;2.63;;
52067;SDS011;60237;52.338;21.228;2022-09-09T06:53:42;28.65;;;3.35;;
52067;SDS011;60237;52.338;21.228;2022-09-09T06:56:24;15.10;;;1.85;;
52067;SDS011;60237;52.338;21.228;2022-09-09T06:58:53;20.88;;;2.30;;
52067;SDS011;60237;52.338;21.228;2022-09-09T07:01:25;11.13;;;1.35;;
52067;SDS011;60237;52.338;21.228;2022-09-09T07:03:54;18.75;;;2.88;;
52067;SDS011;60237;52.338;21.228;2022-09-09T07:06:25;21.20;;;2.63;;
52067;SDS011;60237;52.338;21.228;2022-09-09T07:08:53;22.02;;;2.45;;
52067;SDS011;60237;52.338;21.228;2022-09-09T07:11:28;36.60;;;3.83;;
52067;SDS011;60237;52.338;21.228;2022-09-09T07:13:57;31.73;;;3.33;;
52067;SDS011;60237;52.338;21.228;2022-09-09T07:16:24;17.98;;;1.95;;
52067;SDS011;60237;52.338;21.228;2022-09-09T07:18:51;30.63;;;3.35;;
52067;SDS011;60237;52.338;21.228;2022-09-09T07:21:19;12.68;;;2.03;;
52067;SDS011;60237;52.338;21.228;2022-09-09T07:23:47;22.10;;;2.40;;
52067;SDS011;60237;52.338;21.228;2022-09-09T07:26:14;18.75;;;2.00;;
52067;SDS011;60237;52.338;21.228;2022-09-09T07:28:42;9.57;;;1.10;;
52067;SDS011;60237;52.338;21.228;2022-09-09T07:31:12;8.38;;;1.00;;
52067;SDS011;60237;52.338;21.228;2022-09-09T07:33:39;28.90;;;3.28;;
52067;SDS011;60237;52.338;21.228;2022-09-09T07:36:09;16.70;;;1.92;;
52067;SDS011;60237;52.338;21.228;2022-09-09T07:38:38;10.55;;;1.33;;
52067;SDS011;60237;52.338;21.228;2022-09-09T07:41:06;10.15;;;1.27;;
52067;SDS011;60237;52.338;21.228;2022-09-09T07:43:33;19.52;;;3.13;;
52067;SDS011;60237;52.338;21.228;2022-09-09T07:46:00;11.95;;;1.30;;
52067;SDS011;60237;52.338;21.228;2022-09-09T07:48:30;23.10;;;3.85;;
52067;SDS011;60237;52.338;21.228;2022-09-09T07:51:07;9.25;;;1.10;;
52067;SDS011;60237;52.338;21.228;2022-09-09T07:53:34;24.52;;;2.88;;
52067;SDS011;60237;52.338;21.228;2022-09-09T07:56:06;3.53;;;0.60;;
52067;SDS011;60237;52.338;21.228;2022-09-09T07:58:34;15.93;;;1.80;;
52067;SDS011;60237;52.338;21.228;2022-09-09T08:01:07;20.35;;;2.33;;
52067;SDS011;60237;52.338;21.228;2022-09-09T08:03:34;22.75;;;2.67;;
52067;SDS011;60237;52.338;21.228;2022-09-09T08:06:02;23.75;;;2.75;;
52067;SDS011;60237;52.338;21.228;2022-09-09T08:08:29;6.00;;;1.05;;
52067;SDS011;60237;52.338;21.228;2022-09-09T08:11:07;21.40;;;2.67;;
52067;SDS011;60237;52.338;21.228;2022-09-09T08:13:35;25.10;;;3.03;;
52067;SDS011;60237;52.338;21.228;2022-09-09T08:16:03;3.05;;;0.50;;
52067;SDS011;60237;52.338;21.228;2022-09-09T08:18:31;9.80;;;1.10;;
52067;SDS011;60237;52.338;21.228;2022-09-09T08:20:57;17.55;;;2.13;;
52067;SDS011;60237;52.338;21.228;2022-09-09T08:23:24;7.78;;;1.38;;
52067;SDS011;60237;52.338;21.228;2022-09-09T08:25:52;31.23;;;3.60;;
52067;SDS011;60237;52.338;21.228;2022-09-09T08:28:18;24.98;;;4.43;;
52067;SDS011;60237;52.338;21.228;2022-09-09T08:30:45;11.38;;;1.83;;
52067;SDS011;60237;52.338;21.228;2022-09-09T08:33:14;11.57;;;1.40;;
52067;SDS011;60237;52.338;21.228;2022-09-09T08:35:49;30.88;;;3.72;;
52067;SDS011;60237;52.338;21.228;2022-09-09T08:38:15;13.18;;;1.73;;
52067;SDS011;60237;52.338;21.228;2022-09-09T08:40:43;16.38;;;1.90;;
52067;SDS011;60237;52.338;21.228;2022-09-09T08:43:13;16.70;;;2.10;;
52067;SDS011;60237;52.338;21.228;2022-09-09T08:45:55;13.05;;;1.42;;
52067;SDS011;60237;52.338;21.228;2022-09-09T08:50:52;11.65;;;1.55;;
52067;SDS011;60237;52.338;21.228;2022-09-09T08:53:28;16.35;;;1.95;;
52067;SDS011;60237;52.338;21.228;2022-09-09T08:55:59;10.38;;;1.65;;
52067;SDS011;60237;52.338;21.228;2022-09-09T08:58:41;18.50;;;2.30;;
52067;SDS011;60237;52.338;21.228;2022-09-09T09:11:19;15.27;;;1.80;;
52067;SDS011;60237;52.338;21.228;2022-09-09T09:18:44;21.75;;;2.70;;
52067;SDS011;60237;52.338;21.228;2022-09-09T09:21:16;29.10;;;4.63;;
52067;SDS011;60237;52.338;21.228;2022-09-09T09:24:00;21.38;;;2.45;;
52067;SDS011;60237;52.338;21.228;2022-09-09T09:26:31;8.00;;;2.58;;
52067;SDS011;60237;52.338;21.228;2022-09-09T09:28:59;10.57;;;2.45;;
52067;SDS011;60237;52.338;21.228;2022-09-09T09:31:27;11.98;;;1.45;;
52067;SDS011;60237;52.338;21.228;2022-09-09T09:33:54;26.50;;;3.63;;
52067;SDS011;60237;52.338;21.228;2022-09-09T09:36:34;16.27;;;1.92;;
52067;SDS011;60237;52.338;21.228;2022-09-09T09:39:03;17.02;;;1.88;;
52067;SDS011;60237;52.338;21.228;2022-09-09T09:41:52;33.35;;;3.58;;
52067;SDS011;60237;52.338;21.228;2022-09-09T09:44:37;11.88;;;1.58;;
52067;SDS011;60237;52.338;21.228;2022-09-09T09:47:12;25.05;;;2.80;;
52067;SDS011;60237;52.338;21.228;2022-09-09T09:49:55;17.85;;;3.63;;
52067;SDS011;60237;52.338;21.228;2022-09-09T09:52:24;19.02;;;2.38;;
52067;SDS011;60237;52.338;21.228;2022-09-09T09:54:52;11.57;;;2.38;;
52067;SDS011;60237;52.338;21.228;2022-09-09T09:57:22;14.32;;;1.73;;
52067;SDS011;60237;52.338;21.228;2022-09-09T10:00:00;29.17;;;3.20;;
52067;SDS011;60237;52.338;21.228;2022-09-09T10:02:36;8.18;;;1.20;;
52067;SDS011;60237;52.338;21.228;2022-09-09T10:08:04;16.33;;;2.40;;
52067;SDS011;60237;52.338;21.228;2022-09-09T10:13:16;19.02;;;2.83;;
52067;SDS011;60237;52.338;21.228;2022-09-09T10:18:22;15.50;;;1.90;;
52067;SDS011;60237;52.338;21.228;2022-09-09T10:37:05;5.05;;;0.98;;
52067;SDS011;60237;52.338;21.228;2022-09-09T10:39:38;15.00;;;2.33;;
52067;SDS011;60237;52.338;21.228;2022-09-09T10:42:09;24.83;;;4.13;;
52067;SDS011;60237;52.338;21.228;2022-09-09T10:48:00;21.48;;;2.63;;
52067;SDS011;60237;52.338;21.228;2022-09-09T10:55:17;15.52;;;2.10;;
52067;SDS011;60237;52.338;21.228;2022-09-09T10:57:46;21.77;;;3.28;;
52067;SDS011;60237;52.338;21.228;2022-09-09T11:00:18;17.80;;;2.72;;
52067;SDS011;60237;52.338;21.228;2022-09-09T11:02:55;25.90;;;3.85;;
52067;SDS011;60237;52.338;21.228;2022-09-09T11:08:24;12.88;;;1.90;;
52067;SDS011;60237;52.338;21.228;2022-09-09T11:16:02;3.28;;;1.05;;
52067;SDS011;60237;52.338;21.228;2022-09-09T11:18:31;7.72;;;1.17;;
52067;SDS011;60237;52.338;21.228;2022-09-09T11:21:02;8.45;;;0.95;;
52067;SDS011;60237;52.338;21.228;2022-09-09T11:24:13;6.53;;;1.20;;
52067;SDS011;60237;52.338;21.228;2022-09-09T11:26:24;7.32;;;1.85;;
52067;SDS011;60237;52.338;21.228;2022-09-09T11:29:01;14.23;;;2.40;;
52067;SDS011;60237;52.338;21.228;2022-09-09T11:37:04;11.82;;;1.65;;
52067;SDS011;60237;52.338;21.228;2022-09-09T11:44:38;18.00;;;2.35;;
52067;SDS011;60237;52.338;21.228;2022-09-09T11:47:15;25.85;;;5.53;;
52067;SDS011;60237;52.338;21.228;2022-09-09T11:49:42;11.95;;;2.08;;
52067;SDS011;60237;52.338;21.228;2022-09-09T11:52:35;22.90;;;2.72;;
52067;SDS011;60237;52.338;21.228;2022-09-09T11:55:08;8.90;;;1.88;;
52067;SDS011;60237;52.338;21.228;2022-09-09T12:00:02;15.45;;;2.08;;
52067;SDS011;60237;52.338;21.228;2022-09-09T12:02:37;41.80;;;3.40;;
52067;SDS011;60237;52.338;21.228;2022-09-09T12:05:14;6.20;;;1.48;;
52067;SDS011;60237;52.338;21.228;2022-09-09T12:07:52;23.73;;;3.88;;
52067;SDS011;60237;52.338;21.228;2022-09-09T12:10:27;15.20;;;3.13;;
52067;SDS011;60237;52.338;21.228;2022-09-09T12:12:55;9.98;;;1.58;;
52067;SDS011;60237;52.338;21.228;2022-09-09T12:15:23;19.65;;;2.30;;
52067;SDS011;60237;52.338;21.228;2022-09-09T12:17:52;13.25;;;1.80;;
52067;SDS011;60237;52.338;21.228;2022-09-09T12:20:35;18.25;;;3.47;;
52067;SDS011;60237;52.338;21.228;2022-09-09T12:28:04;27.60;;;4.30;;
52067;SDS011;60237;52.338;21.228;2022-09-09T12:30:56;5.70;;;1.27;;
52067;SDS011;60237;52.338;21.228;2022-09-09T12:33:19;24.08;;;5.10;;
52067;SDS011;60237;52.338;21.228;2022-09-09T12:35:49;21.75;;;2.67;;
52067;SDS011;60237;52.338;21.228;2022-09-09T12:38:51;13.75;;;1.88;;
52067;SDS011;60237;52.338;21.228;2022-09-09T12:43:46;27.98;;;3.42;;
52067;SDS011;60237;52.338;21.228;2022-09-09T12:46:17;11.15;;;1.83;;
52067;SDS011;60237;52.338;21.228;2022-09-09T12:48:48;15.68;;;2.15;;
52067;SDS011;60237;52.338;21.228;2022-09-09T12:51:18;30.92;;;3.95;;
52067;SDS011;60237;52.338;21.228;2022-09-09T12:53:45;21.98;;;3.45;;
52067;SDS011;60237;52.338;21.228;2022-09-09T12:56:22;26.67;;;3.03;;
52067;SDS011;60237;52.338;21.228;2022-09-09T12:58:50;11.27;;;1.77;;
52067;SDS011;60237;52.338;21.228;2022-09-09T13:01:28;10.88;;;1.27;;
52067;SDS011;60237;52.338;21.228;2022-09-09T13:03:56;17.70;;;2.28;;
52067;SDS011;60237;52.338;21.228;2022-09-09T13:06:26;21.23;;;2.55;;
52067;SDS011;60237;52.338;21.228;2022-09-09T13:08:55;11.63;;;2.60;;
52067;SDS011;60237;52.338;21.228;2022-09-09T13:11:27;17.55;;;3.83;;
52067;SDS011;60237;52.338;21.228;2022-09-09T13:13:55;18.98;;;2.80;;
52067;SDS011;60237;52.338;21.228;2022-09-09T13:16:29;27.80;;;4.45;;
52067;SDS011;60237;52.338;21.228;2022-09-09T13:18:59;7.70;;;1.30;;
52067;SDS011;60237;52.338;21.228;2022-09-09T13:21:33;26.83;;;4.38;;
52067;SDS011;60237;52.338;21.228;2022-09-09T13:24:00;6.90;;;2.25;;
52067;SDS011;60237;52.338;21.228;2022-09-09T13:26:29;11.80;;;1.50;;
52067;SDS011;60237;52.338;21.228;2022-09-09T13:29:07;19.13;;;2.63;;
52067;SDS011;60237;52.338;21.228;2022-09-09T13:31:35;16.80;;;4.22;;
52067;SDS011;60237;52.338;21.228;2022-09-09T13:36:59;12.85;;;2.22;;
52067;SDS011;60237;52.338;21.228;2022-09-09T13:39:28;13.30;;;2.28;;
52067;SDS011;60237;52.338;21.228;2022-09-09T13:41:54;19.73;;;3.15;;
52067;SDS011;60237;52.338;21.228;2022-09-09T13:44:22;19.45;;;2.50;;
52067;SDS011;60237;52.338;21.228;2022-09-09T13:47:03;30.45;;;4.22;;
52067;SDS011;60237;52.338;21.228;2022-09-09T13:49:35;11.88;;;1.58;;
52067;SDS011;60237;52.338;21.228;2022-09-09T13:52:04;8.88;;;1.40;;
52067;SDS011;60237;52.338;21.228;2022-09-09T13:54:31;5.28;;;0.93;;
52067;SDS011;60237;52.338;21.228;2022-09-09T13:56:57;18.83;;;2.70;;
52067;SDS011;60237;52.338;21.228;2022-09-09T13:59:24;18.60;;;2.47;;
52067;SDS011;60237;52.338;21.228;2022-09-09T14:02:12;10.60;;;1.33;;
52067;SDS011;60237;52.338;21.228;2022-09-09T14:04:39;20.90;;;2.83;;
52067;SDS011;60237;52.338;21.228;2022-09-09T14:07:16;15.80;;;1.95;;
52067;SDS011;60237;52.338;21.228;2022-09-09T14:09:43;18.58;;;2.40;;
52067;SDS011;60237;52.338;21.228;2022-09-09T14:12:13;23.52;;;3.17;;
52067;SDS011;60237;52.338;21.228;2022-09-09T14:14:41;6.30;;;0.95;;
52067;SDS011;60237;52.338;21.228;2022-09-09T14:17:11;10.85;;;1.73;;
52067;SDS011;60237;52.338;21.228;2022-09-09T14:19:37;35.00;;;5.47;;
52067;SDS011;60237;52.338;21.228;2022-09-09T14:22:04;7.35;;;2.05;;
52067;SDS011;60237;52.338;21.228;2022-09-09T14:24:30;15.80;;;2.60;;
52067;SDS011;60237;52.338;21.228;2022-09-09T14:26:57;24.30;;;3.30;;
52067;SDS011;60237;52.338;21.228;2022-09-09T14:29:23;12.73;;;2.28;;
52067;SDS011;60237;52.338;21.228;2022-09-09T14:31:51;21.17;;;3.47;;
52067;SDS011;60237;52.338;21.228;2022-09-09T14:34:17;27.58;;;2.95;;
52067;SDS011;60237;52.338;21.228;2022-09-09T14:36:44;17.23;;;4.05;;
52067;SDS011;60237;52.338;21.228;2022-09-09T14:39:12;17.58;;;3.03;;
52067;SDS011;60237;52.338;21.228;2022-09-09T14:41:38;48.17;;;6.13;;
52067;SDS011;60237;52.338;21.228;2022-09-09T14:44:05;6.65;;;1.00;;
52067;SDS011;60237;52.338;21.228;2022-09-09T14:46:31;14.85;;;2.58;;
52067;SDS011;60237;52.338;21.228;2022-09-09T14:48:59;28.10;;;3.60;;
52067;SDS011;60237;52.338;21.228;2022-09-09T14:51:26;38.28;;;3.83;;
52067;SDS011;60237;52.338;21.228;2022-09-09T14:53:55;18.70;;;4.68;;
52067;SDS011;60237;52.338;21.228;2022-09-09T14:56:25;18.83;;;2.30;;
52067;SDS011;60237;52.338;21.228;2022-09-09T14:58:53;24.08;;;3.35;;
52067;SDS011;60237;52.338;21.228;2022-09-09T15:01:19;15.77;;;2.05;;
52067;SDS011;60237;52.338;21.228;2022-09-09T15:03:50;30.58;;;3.30;;
52067;SDS011;60237;52.338;21.228;2022-09-09T15:06:19;38.00;;;5.13;;
52067;SDS011;60237;52.338;21.228;2022-09-09T15:08:45;18.35;;;2.38;;
52067;SDS011;60237;52.338;21.228;2022-09-09T15:11:13;12.23;;;1.92;;
52067;SDS011;60237;52.338;21.228;2022-09-09T15:13:40;17.02;;;2.50;;
52067;SDS011;60237;52.338;21.228;2022-09-09T15:16:07;19.85;;;2.78;;
52067;SDS011;60237;52.338;21.228;2022-09-09T15:18:34;25.50;;;2.80;;
52067;SDS011;60237;52.338;21.228;2022-09-09T15:21:02;11.50;;;1.38;;
52067;SDS011;60237;52.338;21.228;2022-09-09T15:23:31;19.15;;;2.45;;
52067;SDS011;60237;52.338;21.228;2022-09-09T15:25:58;15.48;;;2.13;;
52067;SDS011;60237;52.338;21.228;2022-09-09T15:28:25;10.18;;;3.58;;
52067;SDS011;60237;52.338;21.228;2022-09-09T15:30:52;25.02;;;5.10;;
52067;SDS011;60237;52.338;21.228;2022-09-09T15:33:19;26.30;;;3.42;;
52067;SDS011;60237;52.338;21.228;2022-09-09T15:35:46;19.00;;;3.38;;
52067;SDS011;60237;52.338;21.228;2022-09-09T15:38:12;14.60;;;1.83;;
52067;SDS011;60237;52.338;21.228;2022-09-09T15:40:39;27.73;;;4.45;;
52067;SDS011;60237;52.338;21.228;2022-09-09T15:43:06;11.35;;;1.30;;
52067;SDS011;60237;52.338;21.228;2022-09-09T15:45:33;20.80;;;3.05;;
52067;SDS011;60237;52.338;21.228;2022-09-09T15:48:00;25.25;;;3.10;;
52067;SDS011;60237;52.338;21.228;2022-09-09T15:50:27;38.95;;;4.35;;
52067;SDS011;60237;52.338;21.228;2022-09-09T15:52:53;15.27;;;3.08;;
52067;SDS011;60237;52.338;21.228;2022-09-09T15:55:20;32.15;;;3.90;;
52067;SDS011;60237;52.338;21.228;2022-09-09T15:57:46;20.52;;;2.35;;
52067;SDS011;60237;52.338;21.228;2022-09-09T16:00:13;31.25;;;4.35;;
52067;SDS011;60237;52.338;21.228;2022-09-09T16:02:40;29.10;;;5.72;;
52067;SDS011;60237;52.338;21.228;2022-09-09T16:05:06;33.88;;;3.80;;
52067;SDS011;60237;52.338;21.228;2022-09-09T16:07:33;19.25;;;2.15;;
52067;SDS011;60237;52.338;21.228;2022-09-09T16:10:01;22.63;;;3.17;;
52067;SDS011;60237;52.338;21.228;2022-09-09T16:12:28;20.70;;;2.55;;
52067;SDS011;60237;52.338;21.228;2022-09-09T16:14:54;16.90;;;1.85;;
52067;SDS011;60237;52.338;21.228;2022-09-09T16:17:22;25.30;;;3.70;;
52067;SDS011;60237;52.338;21.228;2022-09-09T16:19:48;24.20;;;3.83;;
52067;SDS011;60237;52.338;21.228;2022-09-09T16:22:15;14.63;;;2.08;;
52067;SDS011;60237;52.338;21.228;2022-09-09T16:24:42;32.22;;;4.30;;
52067;SDS011;60237;52.338;21.228;2022-09-09T16:27:09;45.20;;;6.03;;
52067;SDS011;60237;52.338;21.228;2022-09-09T16:29:35;19.35;;;2.67;;
52067;SDS011;60237;52.338;21.228;2022-09-09T16:32:02;32.75;;;4.82;;
52067;SDS011;60237;52.338;21.228;2022-09-09T16:34:30;15.95;;;2.60;;
52067;SDS011;60237;52.338;21.228;2022-09-09T16:36:56;11.23;;;1.98;;
52067;SDS011;60237;52.338;21.228;2022-09-09T16:39:23;26.05;;;3.28;;
52067;SDS011;60237;52.338;21.228;2022-09-09T16:41:49;23.90;;;2.97;;
52067;SDS011;60237;52.338;21.228;2022-09-09T16:44:16;14.65;;;2.53;;
52067;SDS011;60237;52.338;21.228;2022-09-09T16:46:45;26.08;;;4.57;;
52067;SDS011;60237;52.338;21.228;2022-09-09T16:49:13;12.05;;;1.90;;
52067;SDS011;60237;52.338;21.228;2022-09-09T16:51:44;21.33;;;2.38;;
52067;SDS011;60237;52.338;21.228;2022-09-09T16:54:13;32.03;;;4.22;;
52067;SDS011;60237;52.338;21.228;2022-09-09T16:56:41;20.13;;;2.65;;
52067;SDS011;60237;52.338;21.228;2022-09-09T16:59:09;15.15;;;2.70;;